Urb Pastor Felix Rios Lopez, Puerto Rico
Current Conditions -  °F | °C
As of 10:53 PM on Friday 21 Nov 2014 (Local Time) from TJNR Reporting Station
Few Clouds Few Clouds  
Wind Chill: 25°   Ceiling: Unl
Heat Index: 26°   Visibility: 10mi
Dew Point: 23°   Wind: 0mph
Humidity: 90%   Direction: NA
Pressure: 30.06"   Gusts: NA
Location:  18.2667°N, 65.6476°W
Report Text: TJNR 220253Z AUTO 00000KT 10SM FEW110 25/23 A3006 RMK AO2 RAB18E30 SLP180 P0000 60000 T02500233 51010 $
Loading
Personal Weather Stations






























Interactive Weather Map New forecast layout! Learn more

10-Day Weather Forecast

Advertisements
Track Severe Weather on mobile